createdAt,value
2019-05-11T00:02:10.703Z,4.87
2019-05-11T00:04:39.234Z,2.70
2019-05-11T00:07:07.727Z,4.87
2019-05-11T00:09:36.257Z,3.57
2019-05-11T00:12:04.758Z,3.97
2019-05-11T00:14:33.286Z,5.77
2019-05-11T00:17:01.840Z,4.00
2019-05-11T00:19:30.354Z,2.67
2019-05-11T00:21:58.852Z,3.93
2019-05-11T00:24:29.664Z,3.80
2019-05-11T00:26:57.532Z,7.97
2019-05-11T00:29:26.183Z,5.30
2019-05-11T00:31:54.688Z,3.70
2019-05-11T00:34:23.226Z,4.33
2019-05-11T00:36:51.730Z,3.87
2019-05-11T00:39:20.262Z,3.23
2019-05-11T00:41:48.761Z,3.33
2019-05-11T00:44:17.301Z,2.83
2019-05-11T00:46:45.798Z,3.47
2019-05-11T00:49:14.324Z,6.50
2019-05-11T00:51:42.829Z,5.03
2019-05-11T00:54:11.353Z,3.73
2019-05-11T00:56:39.865Z,4.50
2019-05-11T00:59:21.026Z,2.33
2019-05-11T01:01:38.606Z,2.77
2019-05-11T01:04:07.160Z,5.83
2019-05-11T01:06:35.633Z,2.40
2019-05-11T01:09:05.597Z,3.10
2019-05-11T01:11:34.087Z,4.00
2019-05-11T01:14:02.624Z,4.53
2019-05-11T01:16:31.119Z,3.13
2019-05-11T01:18:59.658Z,2.97
2019-05-11T01:21:28.156Z,2.43
2019-05-11T01:23:56.757Z,2.30
2019-05-11T01:26:25.261Z,2.77
2019-05-11T01:28:53.786Z,2.33
2019-05-11T01:31:22.309Z,2.90
2019-05-11T01:33:50.809Z,2.40
2019-05-11T01:36:19.601Z,2.10
2019-05-11T01:38:48.092Z,1.90
2019-05-11T01:41:16.619Z,2.13
2019-05-11T01:43:45.116Z,1.80
2019-05-11T01:46:13.650Z,2.17
2019-05-11T01:48:42.145Z,1.70
2019-05-11T01:51:10.670Z,2.90
2019-05-11T01:53:39.174Z,2.93
2019-05-11T01:56:07.640Z,2.77
2019-05-11T01:58:36.106Z,2.17
2019-05-11T02:01:04.829Z,3.03
2019-05-11T02:03:33.324Z,4.10
2019-05-11T02:06:01.821Z,2.50
2019-05-11T02:08:30.342Z,2.27
2019-05-11T02:11:13.750Z,1.80
2019-05-11T02:13:28.954Z,2.23
2019-05-11T02:15:57.443Z,4.63
2019-05-11T02:18:25.910Z,3.10
2019-05-11T02:20:54.417Z,3.63
2019-05-11T02:23:22.859Z,1.53
2019-05-11T02:25:51.353Z,2.00
2019-05-11T02:28:19.820Z,3.37
2019-05-11T02:30:48.308Z,1.97
2019-05-11T02:33:16.898Z,2.57
2019-05-11T02:35:45.378Z,3.30
2019-05-11T02:38:13.843Z,2.83
2019-05-11T02:40:42.387Z,2.20
2019-05-11T02:43:10.800Z,4.10
2019-05-11T02:45:41.036Z,2.90
2019-05-11T02:48:09.623Z,3.13
2019-05-11T02:50:39.059Z,2.57
2019-05-11T02:53:08.450Z,2.37
2019-05-11T02:55:37.079Z,2.30
2019-05-11T02:58:06.851Z,4.00
2019-05-11T03:00:38.455Z,2.60
2019-05-11T03:03:06.981Z,2.30
2019-05-11T03:05:35.480Z,2.73
2019-05-11T03:08:04.283Z,2.50
2019-05-11T03:10:32.767Z,2.20
2019-05-11T03:13:01.235Z,2.30
2019-05-11T03:15:29.793Z,3.40
2019-05-11T03:17:58.267Z,1.90
2019-05-11T03:20:26.720Z,3.07
2019-05-11T03:22:55.219Z,5.33
2019-05-11T03:25:24.463Z,2.93
2019-05-11T03:27:52.954Z,2.00
2019-05-11T03:30:21.551Z,2.20
2019-05-11T03:32:50.047Z,4.80
2019-05-11T03:35:18.525Z,2.13
2019-05-11T03:37:47.003Z,2.97
2019-05-11T03:40:15.702Z,2.20
2019-05-11T03:42:44.208Z,2.27
2019-05-11T03:45:12.949Z,2.23
2019-05-11T03:47:41.426Z,3.30
2019-05-11T03:50:10.159Z,2.77
2019-05-11T03:52:38.661Z,3.90
2019-05-11T03:55:07.364Z,2.73
2019-05-11T03:57:35.854Z,2.83
2019-05-11T04:00:06.974Z,4.93
2019-05-11T04:02:35.470Z,4.00
2019-05-11T04:05:05.163Z,3.30
2019-05-11T04:07:33.656Z,2.83
2019-05-11T04:10:02.119Z,2.80
2019-05-11T04:12:35.456Z,2.57
2019-05-11T04:15:00.728Z,4.90
2019-05-11T04:17:29.201Z,2.80
2019-05-11T04:19:57.664Z,8.10
2019-05-11T04:22:26.156Z,2.33
2019-05-11T04:24:54.617Z,3.00
2019-05-11T04:27:23.388Z,4.40
2019-05-11T04:29:51.822Z,4.50
2019-05-11T04:32:20.309Z,2.13
2019-05-11T04:34:48.773Z,3.90
2019-05-11T04:37:17.269Z,2.50
2019-05-11T04:39:45.730Z,2.83
2019-05-11T04:42:14.238Z,4.50
2019-05-11T04:44:42.699Z,2.27
2019-05-11T04:47:11.189Z,2.23
2019-05-11T04:49:39.659Z,2.10
2019-05-11T04:52:08.151Z,2.00
2019-05-11T04:54:36.619Z,3.23
2019-05-11T04:57:05.185Z,2.43
2019-05-11T04:59:33.650Z,2.20
2019-05-11T05:02:02.142Z,1.63
2019-05-11T05:04:30.599Z,2.70
2019-05-11T05:07:00.239Z,1.90
2019-05-11T05:09:29.295Z,1.50
2019-05-11T05:11:57.902Z,1.50
2019-05-11T05:14:26.438Z,1.63
2019-05-11T05:16:54.906Z,1.70
2019-05-11T05:19:23.397Z,1.90
2019-05-11T05:21:51.861Z,1.40
2019-05-11T05:24:20.353Z,1.80
2019-05-11T05:26:48.822Z,1.30
2019-05-11T05:29:17.312Z,1.90
2019-05-11T05:31:45.782Z,1.97
2019-05-11T05:34:14.282Z,1.90
2019-05-11T05:36:42.749Z,1.80
2019-05-11T05:39:11.255Z,4.10
2019-05-11T05:41:39.721Z,1.50
2019-05-11T05:44:08.284Z,1.50
2019-05-11T05:46:36.754Z,2.00
2019-05-11T05:49:05.249Z,1.63
2019-05-11T05:51:33.714Z,1.63
2019-05-11T05:54:02.209Z,2.70
2019-05-11T05:56:30.676Z,1.57
2019-05-11T05:58:59.169Z,2.40
2019-05-11T06:01:27.629Z,1.87
2019-05-11T06:03:56.117Z,1.73
2019-05-11T06:06:24.584Z,3.73
2019-05-11T06:08:53.106Z,2.03
2019-05-11T06:11:21.566Z,3.13
2019-05-11T06:13:50.053Z,1.67
2019-05-11T06:16:18.533Z,2.77
2019-05-11T06:18:47.071Z,5.60
2019-05-11T06:21:15.541Z,3.07
2019-05-11T06:23:44.050Z,1.37
2019-05-11T06:26:12.501Z,2.20
2019-05-11T06:28:41.002Z,2.23
2019-05-11T06:31:09.465Z,1.50
2019-05-11T06:33:37.966Z,1.60
2019-05-11T06:36:06.427Z,2.20
2019-05-11T06:38:34.918Z,3.30
2019-05-11T06:41:03.378Z,1.40
2019-05-11T06:43:32.009Z,2.10
2019-05-11T06:46:00.571Z,1.70
2019-05-11T06:48:29.201Z,1.83
2019-05-11T06:50:57.831Z,4.23
2019-05-11T06:53:26.316Z,3.23
2019-05-11T06:55:54.777Z,3.00
2019-05-11T06:58:23.270Z,2.90
2019-05-11T07:00:51.727Z,2.10
2019-05-11T07:03:20.731Z,5.63
2019-05-11T07:05:49.452Z,2.20
2019-05-11T07:08:17.887Z,1.87
2019-05-11T07:10:46.372Z,1.33
2019-05-11T07:13:14.904Z,1.50
2019-05-11T07:15:43.463Z,1.10
2019-05-11T07:18:11.922Z,1.93
2019-05-11T07:20:50.240Z,1.17
2019-05-11T07:23:10.543Z,1.37
2019-05-11T07:25:39.017Z,1.90
2019-05-11T07:28:07.528Z,1.20
2019-05-11T07:30:35.977Z,3.87
2019-05-11T07:33:04.513Z,1.40
2019-05-11T07:35:33.841Z,1.47
2019-05-11T07:38:02.311Z,1.50
2019-05-11T07:40:30.877Z,1.50
2019-05-11T07:42:59.704Z,7.03
2019-05-11T07:45:28.466Z,1.53
2019-05-11T07:47:59.023Z,1.60
2019-05-11T07:50:28.341Z,1.37
2019-05-11T07:52:58.888Z,1.33
2019-05-11T07:55:28.247Z,1.80
2019-05-11T07:57:58.546Z,2.00
2019-05-11T08:00:28.154Z,2.80
2019-05-11T08:02:58.488Z,2.23
2019-05-11T08:05:28.424Z,1.30
2019-05-11T08:07:59.298Z,1.57
2019-05-11T08:10:28.126Z,1.93
2019-05-11T08:12:58.757Z,1.50
2019-05-11T08:15:28.405Z,1.10
2019-05-11T08:17:57.796Z,3.43
2019-05-11T08:20:28.128Z,1.67
2019-05-11T08:22:58.692Z,3.07
2019-05-11T08:25:28.639Z,1.00
2019-05-11T08:27:58.842Z,1.67
2019-05-11T08:30:27.873Z,1.00
2019-05-11T08:32:58.247Z,1.60
2019-05-11T08:35:30.873Z,1.00
2019-05-11T08:37:58.236Z,0.90
2019-05-11T08:40:28.869Z,1.90
2019-05-11T08:42:58.323Z,2.13
2019-05-11T08:45:28.016Z,3.53
2019-05-11T08:47:57.963Z,2.50
2019-05-11T08:50:27.944Z,1.20
2019-05-11T08:52:58.085Z,1.70
2019-05-11T08:55:28.789Z,1.13
2019-05-11T08:57:58.565Z,1.50
2019-05-11T09:00:28.365Z,2.60
2019-05-11T09:02:58.300Z,1.63
2019-05-11T09:05:28.072Z,2.40
2019-05-11T09:07:57.799Z,2.00
2019-05-11T09:10:28.027Z,1.63
2019-05-11T09:12:58.870Z,0.90
2019-05-11T09:15:36.482Z,2.70
2019-05-11T09:17:57.776Z,0.97
2019-05-11T09:20:28.343Z,2.00
2019-05-11T09:22:58.730Z,2.43
2019-05-11T09:25:27.791Z,1.93
2019-05-11T09:27:58.504Z,1.00
2019-05-11T09:30:28.644Z,1.80
2019-05-11T09:32:58.117Z,1.90
2019-05-11T09:35:29.042Z,0.70
2019-05-11T09:37:58.733Z,2.40
2019-05-11T09:40:28.353Z,1.23
2019-05-11T09:42:58.547Z,1.80
2019-05-11T09:45:27.825Z,2.40
2019-05-11T09:47:58.237Z,2.90
2019-05-11T09:50:28.409Z,1.77
2019-05-11T09:52:58.116Z,1.13
2019-05-11T09:55:28.271Z,3.03
2019-05-11T09:57:57.949Z,2.17
2019-05-11T10:00:28.279Z,1.93
2019-05-11T10:02:57.720Z,2.10
2019-05-11T10:05:28.449Z,1.20
2019-05-11T10:07:58.734Z,1.33
2019-05-11T10:10:28.792Z,0.83
2019-05-11T10:12:58.747Z,0.70
2019-05-11T10:15:27.965Z,1.00
2019-05-11T10:17:58.211Z,0.73
2019-05-11T10:20:28.642Z,2.13
2019-05-11T10:22:57.968Z,0.80
2019-05-11T10:25:28.502Z,0.70
2019-05-11T10:27:57.970Z,0.80
2019-05-11T10:30:27.990Z,1.00
2019-05-11T10:32:57.819Z,1.83
2019-05-11T10:35:28.179Z,3.27
2019-05-11T10:37:58.338Z,2.60
2019-05-11T10:40:28.168Z,0.60
2019-05-11T10:42:58.751Z,2.00
2019-05-11T10:45:28.480Z,1.53
2019-05-11T10:48:00.371Z,2.80
2019-05-11T10:50:28.790Z,0.67
2019-05-11T10:52:59.088Z,1.73
2019-05-11T10:55:28.039Z,0.70
2019-05-11T10:57:58.089Z,2.60
2019-05-11T11:00:28.273Z,2.30
2019-05-11T11:02:58.128Z,2.33
2019-05-11T11:05:27.952Z,0.83
2019-05-11T11:07:58.664Z,2.70
2019-05-11T11:10:28.654Z,1.43
2019-05-11T11:12:57.818Z,2.60
2019-05-11T11:15:28.619Z,1.90
2019-05-11T11:17:57.890Z,1.23
2019-05-11T11:20:27.979Z,1.17
2019-05-11T11:22:58.312Z,0.70
2019-05-11T11:25:28.341Z,0.63
2019-05-11T11:27:57.810Z,1.27
2019-05-11T11:30:28.402Z,1.93
2019-05-11T11:32:58.584Z,1.33
2019-05-11T11:35:27.916Z,1.33
2019-05-11T11:37:58.520Z,1.33
2019-05-11T11:40:28.209Z,0.90
2019-05-11T11:42:58.075Z,0.60
2019-05-11T11:45:28.598Z,1.07
2019-05-11T11:47:58.047Z,0.67
2019-05-11T11:50:28.362Z,0.90
2019-05-11T11:52:57.852Z,0.80
2019-05-11T11:55:28.790Z,1.83
2019-05-11T11:57:58.631Z,2.00
2019-05-11T12:00:28.857Z,0.70
2019-05-11T12:02:58.006Z,1.90
2019-05-11T12:05:28.316Z,2.10
2019-05-11T12:07:58.024Z,1.37
2019-05-11T12:10:28.517Z,0.60
2019-05-11T12:12:58.079Z,0.70
2019-05-11T12:15:28.226Z,1.23
2019-05-11T12:17:58.726Z,1.13
2019-05-11T12:20:28.655Z,1.17
2019-05-11T12:22:58.127Z,1.23
2019-05-11T12:25:27.807Z,0.90
2019-05-11T12:27:57.700Z,1.00
2019-05-11T12:30:28.350Z,2.20
2019-05-11T12:32:57.706Z,0.80
2019-05-11T12:35:28.234Z,1.10
2019-05-11T12:37:58.507Z,0.60
2019-05-11T12:40:28.265Z,0.90
2019-05-11T12:42:58.443Z,1.53
2019-05-11T12:45:29.367Z,2.40
2019-05-11T12:47:58.671Z,0.87
2019-05-11T12:50:28.627Z,1.50
2019-05-11T12:52:58.817Z,0.73
2019-05-11T12:55:28.637Z,0.87
2019-05-11T12:57:58.028Z,0.70
2019-05-11T13:00:30.950Z,1.13
2019-05-11T13:02:58.566Z,1.57
2019-05-11T13:05:28.520Z,1.10
2019-05-11T13:07:58.725Z,6.30
2019-05-11T13:10:28.230Z,2.63
2019-05-11T13:12:58.123Z,9.23
2019-05-11T13:15:28.450Z,1.77
2019-05-11T13:17:58.161Z,2.13
2019-05-11T13:20:28.612Z,1.33
2019-05-11T13:22:58.716Z,0.77
2019-05-11T13:25:28.281Z,2.97
2019-05-11T13:27:58.078Z,1.53
2019-05-11T13:30:27.809Z,2.30
2019-05-11T13:32:58.015Z,1.20
2019-05-11T13:35:28.536Z,1.23
2019-05-11T13:37:58.456Z,0.70
2019-05-11T13:40:27.707Z,1.03
2019-05-11T13:42:58.135Z,0.80
2019-05-11T13:45:28.219Z,1.03
2019-05-11T13:47:59.329Z,1.33
2019-05-11T13:50:26.667Z,2.00
2019-05-11T13:52:55.133Z,0.60
2019-05-11T13:55:23.693Z,1.23
2019-05-11T13:57:52.155Z,1.37
2019-05-11T14:00:20.887Z,0.60
2019-05-11T14:02:49.351Z,0.60
2019-05-11T14:05:19.867Z,1.98
2019-05-11T14:07:48.412Z,0.50
2019-05-11T14:10:18.067Z,0.75
2019-05-11T14:12:47.727Z,0.67
2019-05-11T14:15:18.126Z,0.80
2019-05-11T14:17:48.153Z,1.27
2019-05-11T14:20:18.747Z,2.97
2019-05-11T14:22:47.966Z,0.90
2019-05-11T14:25:18.545Z,2.50
2019-05-11T14:27:47.921Z,2.70
2019-05-11T14:30:18.412Z,3.40
2019-05-11T14:32:47.811Z,5.80
2019-05-11T14:35:18.598Z,1.53
2019-05-11T14:37:48.515Z,6.50
2019-05-11T14:40:17.820Z,1.97
2019-05-11T14:42:48.751Z,3.80
2019-05-11T14:45:18.567Z,1.40
2019-05-11T14:47:47.813Z,3.17
2019-05-11T14:50:18.581Z,2.97
2019-05-11T14:52:48.857Z,3.50
2019-05-11T14:55:18.396Z,3.00
2019-05-11T14:57:48.589Z,1.00
2019-05-11T15:00:18.654Z,2.67
2019-05-11T15:02:49.119Z,3.03
2019-05-11T15:05:18.495Z,1.57
2019-05-11T15:07:47.965Z,1.00
2019-05-11T15:10:18.784Z,0.60
2019-05-11T15:12:48.880Z,2.00
2019-05-11T15:15:18.650Z,2.67
2019-05-11T15:17:49.143Z,1.67
2019-05-11T15:20:17.850Z,1.20
2019-05-11T15:22:48.605Z,1.60
2019-05-11T15:25:19.297Z,1.40
2019-05-11T15:27:48.906Z,1.23
2019-05-11T15:30:18.388Z,1.10
2019-05-11T15:32:48.223Z,1.93
2019-05-11T15:35:18.643Z,1.40
2019-05-11T15:37:48.129Z,2.47
2019-05-11T15:40:21.139Z,2.93
2019-05-11T15:42:49.624Z,1.80
2019-05-11T15:45:18.889Z,2.20
2019-05-11T15:47:48.785Z,1.00
2019-05-11T15:50:19.614Z,1.90
2019-05-11T15:52:48.732Z,1.20
2019-05-11T15:55:18.878Z,1.30
2019-05-11T15:57:48.284Z,1.80
2019-05-11T16:00:17.384Z,1.17
2019-05-11T16:02:48.700Z,1.17
2019-05-11T16:05:18.300Z,0.93
2019-05-11T16:07:46.203Z,1.40
2019-05-11T16:10:15.707Z,1.57
2019-05-11T16:12:44.191Z,1.43
2019-05-11T16:15:12.724Z,1.53
2019-05-11T16:17:41.286Z,2.13
2019-05-11T16:20:10.499Z,3.30
2019-05-11T16:22:38.995Z,3.97
2019-05-11T16:25:09.997Z,6.83
2019-05-11T16:27:38.559Z,3.13
2019-05-11T16:30:08.557Z,2.17
2019-05-11T16:32:38.639Z,2.30
2019-05-11T16:35:08.835Z,1.73
2019-05-11T16:37:38.053Z,2.33
2019-05-11T16:40:09.933Z,1.93
2019-05-11T16:42:38.809Z,8.63
2019-05-11T16:45:08.511Z,3.73
2019-05-11T16:47:39.102Z,4.92
2019-05-11T16:50:10.548Z,3.53
2019-05-11T16:52:39.049Z,2.40
2019-05-11T16:55:08.249Z,3.00
2019-05-11T16:57:38.231Z,2.70
2019-05-11T17:00:08.840Z,2.60
2019-05-11T17:02:38.271Z,3.52
2019-05-11T17:05:08.104Z,2.80
2019-05-11T17:07:37.686Z,2.85
2019-05-11T17:10:08.489Z,3.40
2019-05-11T17:12:38.483Z,2.08
2019-05-11T17:15:08.823Z,2.13
2019-05-11T17:17:37.390Z,4.20
2019-05-11T17:20:07.901Z,2.53
2019-05-11T17:22:38.712Z,2.35
2019-05-11T17:25:08.726Z,1.93
2019-05-11T17:27:37.735Z,1.50
2019-05-11T17:30:08.577Z,1.67
2019-05-11T17:32:38.317Z,2.70
2019-05-11T17:35:08.441Z,1.77
2019-05-11T17:37:38.127Z,2.22
2019-05-11T17:40:09.052Z,1.87
2019-05-11T17:42:37.937Z,2.87
2019-05-11T17:45:08.039Z,2.60
2019-05-11T17:47:38.700Z,3.02
2019-05-11T17:50:10.009Z,2.67
2019-05-11T17:52:38.660Z,2.58
2019-05-11T17:55:07.140Z,1.70
2019-05-11T17:57:36.278Z,1.60
2019-05-11T18:00:07.886Z,2.00
2019-05-11T18:02:38.944Z,2.47
2019-05-11T18:05:08.999Z,3.77
2019-05-11T18:07:38.575Z,1.70
2019-05-11T18:10:08.192Z,2.50
2019-05-11T18:12:38.936Z,2.37
2019-05-11T18:15:08.519Z,3.80
2019-05-11T18:17:36.952Z,3.25
2019-05-11T18:20:16.812Z,2.47
2019-05-11T18:22:39.246Z,2.17
2019-05-11T18:25:08.793Z,2.37
2019-05-11T18:27:38.642Z,2.12
2019-05-11T18:30:08.737Z,2.57
2019-05-11T18:32:39.640Z,2.62
2019-05-11T18:35:08.369Z,3.00
2019-05-11T18:37:38.886Z,4.22
2019-05-11T18:40:07.511Z,2.63
2019-05-11T18:42:38.067Z,3.20
2019-05-11T18:45:09.434Z,2.83
2019-05-11T18:47:38.360Z,3.50
2019-05-11T18:50:07.725Z,2.77
2019-05-11T18:52:36.198Z,2.98
2019-05-11T18:55:08.202Z,4.47
2019-05-11T18:57:38.209Z,3.10
2019-05-11T19:00:10.432Z,14.95
2019-05-11T19:02:38.893Z,3.70
2019-05-11T19:05:07.909Z,3.20
2019-05-11T19:07:38.580Z,2.58
2019-05-11T19:10:08.881Z,3.27
2019-05-11T19:12:37.765Z,2.85
2019-05-11T19:15:08.045Z,4.28
2019-05-11T19:17:38.502Z,3.33
2019-05-11T19:20:08.388Z,3.70
2019-05-11T19:22:37.794Z,2.77
2019-05-11T19:25:09.001Z,3.87
2019-05-11T19:27:37.672Z,2.98
2019-05-11T19:30:09.326Z,3.50
2019-05-11T19:32:38.426Z,3.50
2019-05-11T19:35:08.946Z,3.93
2019-05-11T19:37:38.735Z,2.80
2019-05-11T19:40:09.305Z,3.27
2019-05-11T19:42:54.346Z,2.77
2019-05-11T19:45:23.215Z,2.25
2019-05-11T19:47:51.688Z,2.90
2019-05-11T19:50:20.169Z,2.62
2019-05-11T19:52:48.638Z,2.55
2019-05-11T19:55:17.875Z,3.35
2019-05-11T19:57:48.191Z,2.10
2019-05-11T20:00:18.458Z,2.10
2019-05-11T20:02:47.074Z,1.90
2019-05-11T20:05:18.191Z,2.33
2019-05-11T20:07:48.249Z,3.08
2019-05-11T20:10:18.554Z,2.70
2019-05-11T20:12:48.061Z,2.30
2019-05-11T20:15:18.429Z,2.73
2019-05-11T20:17:48.270Z,2.42
2019-05-11T20:20:18.455Z,2.20
2019-05-11T20:22:48.346Z,2.10
2019-05-11T20:25:18.759Z,2.90
2019-05-11T20:27:48.232Z,3.60
2019-05-11T20:30:18.394Z,2.30
2019-05-11T20:32:48.509Z,2.75
2019-05-11T20:35:17.250Z,2.65
2019-05-11T20:37:45.707Z,3.27
2019-05-11T20:40:14.331Z,3.15
2019-05-11T20:42:42.791Z,2.40
2019-05-11T20:45:11.642Z,2.52
2019-05-11T20:47:40.101Z,2.55
2019-05-11T20:50:08.581Z,2.10
2019-05-11T20:52:38.961Z,1.80
2019-05-11T20:55:08.804Z,2.37
2019-05-11T20:57:39.375Z,2.10
2019-05-11T21:00:08.702Z,2.33
2019-05-11T21:02:38.058Z,1.80
2019-05-11T21:05:09.195Z,2.05
2019-05-11T21:07:38.869Z,2.50
2019-05-11T21:10:08.822Z,3.13
2019-05-11T21:12:38.576Z,2.08
2019-05-11T21:15:08.097Z,2.43
2019-05-11T21:17:36.568Z,2.35
2019-05-11T21:20:08.474Z,1.80
2019-05-11T21:22:40.151Z,1.80
2019-05-11T21:25:09.075Z,1.65
2019-05-11T21:27:38.641Z,2.15
2019-05-11T21:30:09.066Z,2.10
2019-05-11T21:32:38.814Z,1.67
2019-05-11T21:35:09.084Z,2.17
2019-05-11T21:37:38.689Z,2.60
2019-05-11T21:40:08.483Z,2.33
2019-05-11T21:42:38.986Z,2.77
2019-05-11T21:45:10.105Z,2.50
2019-05-11T21:47:39.381Z,2.35
2019-05-11T21:50:09.174Z,2.50
2019-05-11T21:52:38.641Z,2.27
2019-05-11T21:55:09.381Z,2.23
2019-05-11T21:57:37.921Z,2.70
2019-05-11T22:00:10.052Z,2.27
2019-05-11T22:02:39.060Z,2.70
2019-05-11T22:05:08.124Z,2.07
2019-05-11T22:07:38.833Z,2.70
2019-05-11T22:10:08.856Z,4.90
2019-05-11T22:12:38.697Z,3.80
2019-05-11T22:15:09.204Z,2.43
2019-05-11T22:17:39.323Z,2.45
2019-05-11T22:20:09.235Z,2.40
2019-05-11T22:22:39.057Z,4.35
2019-05-11T22:25:08.589Z,6.60
2019-05-11T22:27:38.757Z,13.80
2019-05-11T22:30:08.310Z,11.37
2019-05-11T22:32:38.297Z,10.58
2019-05-11T22:35:08.826Z,17.40
2019-05-11T22:37:38.717Z,17.57
2019-05-11T22:40:08.569Z,20.87
2019-05-11T22:42:37.337Z,12.75
2019-05-11T22:45:08.511Z,21.73
2019-05-11T22:47:39.177Z,11.28
2019-05-11T22:50:08.120Z,10.97
2019-05-11T22:52:39.665Z,10.85
2019-05-11T22:55:08.974Z,11.40
2019-05-11T22:57:38.169Z,15.85
2019-05-11T23:00:10.231Z,9.97
2019-05-11T23:02:38.782Z,5.90
2019-05-11T23:05:08.896Z,5.30
2019-05-11T23:07:41.156Z,6.50
2019-05-11T23:10:09.273Z,8.10
2019-05-11T23:12:38.447Z,7.12
2019-05-11T23:15:09.678Z,11.37
2019-05-11T23:17:38.660Z,7.28
2019-05-11T23:20:07.982Z,11.70
2019-05-11T23:22:53.195Z,7.08
2019-05-11T23:25:08.262Z,8.47
2019-05-11T23:27:39.100Z,10.40
2019-05-11T23:30:08.782Z,6.93
2019-05-11T23:32:37.505Z,8.00
2019-05-11T23:35:08.660Z,6.73
2019-05-11T23:37:38.600Z,7.75
2019-05-11T23:40:09.240Z,10.68
2019-05-11T23:42:38.263Z,10.82
2019-05-11T23:45:08.420Z,12.67
2019-05-11T23:47:39.330Z,9.53
2019-05-11T23:50:08.316Z,7.53
2019-05-11T23:52:38.086Z,12.58
2019-05-11T23:55:08.158Z,11.20
2019-05-11T23:57:37.938Z,15.35
